createdAt,value
2023-04-25T00:02:29.972Z,5.97
2023-04-25T00:07:33.199Z,5.92
2023-04-25T00:12:35.303Z,5.91
2023-04-25T00:17:39.285Z,5.91
2023-04-25T00:22:41.221Z,5.89
2023-04-25T00:27:42.921Z,5.83
2023-04-25T00:32:44.707Z,5.79
2023-04-25T00:37:51.433Z,5.77
2023-04-25T00:43:00.007Z,5.74
2023-04-25T00:48:05.670Z,5.70
2023-04-25T00:53:11.024Z,5.68
2023-04-25T00:58:15.223Z,5.66
2023-04-25T01:03:18.366Z,5.67
2023-04-25T01:08:23.013Z,5.69
2023-04-25T01:13:24.826Z,5.69
2023-04-25T01:18:29.549Z,5.47
2023-04-25T01:23:31.344Z,5.11
2023-04-25T01:28:34.618Z,5.01
2023-04-25T01:33:36.690Z,4.93
2023-04-25T01:38:41.707Z,4.91
2023-04-25T01:43:46.521Z,4.66
2023-04-25T01:48:50.733Z,4.47
2023-04-25T01:53:55.169Z,4.36
2023-04-25T01:59:04.153Z,4.24
2023-04-25T02:04:34.990Z,4.10
2023-04-25T02:09:41.891Z,3.99
2023-04-25T02:14:46.856Z,3.85
2023-04-25T02:20:00.036Z,3.78
2023-04-25T02:25:05.704Z,3.77
2023-04-25T02:30:13.406Z,3.66
2023-04-25T02:35:15.099Z,3.60
2023-04-25T02:40:21.492Z,3.46
2023-04-25T02:45:25.620Z,3.45
2023-04-25T02:50:29.315Z,3.34
2023-04-25T02:55:31.149Z,3.37
2023-04-25T03:00:37.372Z,3.57
2023-04-25T03:05:39.156Z,3.80
2023-04-25T03:10:43.894Z,4.00
2023-04-25T03:15:48.604Z,4.13
2023-04-25T03:20:50.847Z,4.25
2023-04-25T03:25:52.520Z,4.33
2023-04-25T03:30:56.651Z,4.45
2023-04-25T03:36:03.743Z,4.50
2023-04-25T03:41:05.852Z,4.48
2023-04-25T03:46:19.004Z,4.50
2023-04-25T03:51:22.468Z,4.51
2023-04-25T03:56:24.235Z,4.51
2023-04-25T04:01:34.118Z,4.51
2023-04-25T04:06:35.966Z,4.52
2023-04-25T04:11:46.920Z,4.53
2023-04-25T04:16:48.942Z,4.57
2023-04-25T04:21:50.707Z,4.63
2023-04-25T04:26:55.859Z,4.70
2023-04-25T04:32:11.765Z,4.73
2023-04-25T04:37:14.086Z,4.58
2023-04-25T04:42:16.934Z,4.74
2023-04-25T04:47:33.353Z,4.86
2023-04-25T04:52:50.893Z,4.95
2023-04-25T04:58:11.444Z,5.24
2023-04-25T05:03:39.089Z,5.33
2023-04-25T05:09:01.008Z,5.42
2023-04-25T05:14:15.593Z,5.47
2023-04-25T05:19:36.194Z,5.53
2023-04-25T05:24:56.377Z,5.60
2023-04-25T05:30:24.208Z,5.60
2023-04-25T05:35:57.421Z,5.75
2023-04-25T05:41:02.362Z,5.83
2023-04-25T05:46:19.454Z,5.80
2023-04-25T05:51:30.824Z,5.79
2023-04-25T05:56:48.201Z,5.84
2023-04-25T06:01:49.985Z,5.88
2023-04-25T06:06:51.747Z,6.01
2023-04-25T06:11:53.782Z,6.10
2023-04-25T06:16:57.755Z,5.91
2023-04-25T06:21:59.670Z,5.99
2023-04-25T06:27:03.751Z,6.43
2023-04-25T06:32:08.221Z,6.79
2023-04-25T06:37:10.655Z,6.81
2023-04-25T06:42:14.901Z,6.67
2023-04-25T06:47:25.332Z,6.57
2023-04-25T06:52:27.183Z,6.59
2023-04-25T06:57:29.487Z,6.65
2023-04-25T07:02:38.826Z,6.86
2023-04-25T07:07:41.408Z,7.11
2023-04-25T07:12:43.149Z,7.36
2023-04-25T07:17:45.173Z,7.62
2023-04-25T07:22:47.352Z,7.60
2023-04-25T07:27:51.511Z,7.74
2023-04-25T07:32:54.945Z,7.48
2023-04-25T07:37:56.936Z,7.26
2023-04-25T07:42:59.791Z,7.60
2023-04-25T07:48:09.340Z,7.64
2023-04-25T07:53:15.721Z,7.94
2023-04-25T07:58:26.878Z,8.36
2023-04-25T08:03:33.417Z,7.37
2023-04-25T08:08:39.651Z,7.30
2023-04-25T08:13:47.667Z,7.44
2023-04-25T08:18:54.352Z,7.65
2023-04-25T08:23:59.615Z,7.48
2023-04-25T08:29:08.361Z,7.90
2023-04-25T08:34:18.598Z,7.92
2023-04-25T08:39:29.842Z,7.97
2023-04-25T08:45:07.093Z,8.30
2023-04-25T08:50:12.793Z,8.34
2023-04-25T08:55:16.807Z,8.30
2023-04-25T09:00:21.480Z,8.49
2023-04-25T09:05:25.727Z,8.79
2023-04-25T09:10:29.163Z,9.21
2023-04-25T09:15:38.474Z,9.73
2023-04-25T09:21:00.087Z,9.96
2023-04-25T09:26:08.140Z,9.82
2023-04-25T09:31:22.879Z,10.06
2023-04-25T09:36:27.786Z,9.78
2023-04-25T09:41:55.136Z,9.75
2023-04-25T09:46:58.108Z,9.68
2023-04-25T09:52:04.813Z,10.11
2023-04-25T09:57:23.215Z,10.19
2023-04-25T10:02:27.568Z,10.23
2023-04-25T10:07:35.100Z,9.46
2023-04-25T10:12:37.161Z,9.43
2023-04-25T10:17:43.005Z,10.67
2023-04-25T10:22:47.735Z,10.50
2023-04-25T10:27:52.718Z,10.49
2023-04-25T10:33:01.566Z,11.09
2023-04-25T10:38:13.644Z,10.89
2023-04-25T10:43:33.045Z,11.22
2023-04-25T10:48:35.610Z,11.32
2023-04-25T10:53:41.963Z,11.09
2023-04-25T10:58:45.401Z,11.02
2023-04-25T11:03:51.643Z,11.43
2023-04-25T11:08:56.358Z,11.60
2023-04-25T11:13:58.107Z,11.26
2023-04-25T11:18:59.863Z,11.57
2023-04-25T11:24:02.134Z,11.66
2023-04-25T11:29:07.013Z,12.26
2023-04-25T11:34:08.757Z,12.54
2023-04-25T11:39:10.699Z,12.70
2023-04-25T11:44:21.155Z,12.41
2023-04-25T11:49:23.136Z,12.19
2023-04-25T11:54:29.913Z,11.75
2023-04-25T11:59:34.686Z,12.81
2023-04-25T12:04:42.309Z,13.26
2023-04-25T12:09:44.463Z,13.20
2023-04-25T12:14:51.124Z,13.70
2023-04-25T12:19:53.056Z,13.09
2023-04-25T12:24:59.438Z,13.26
2023-04-25T12:30:05.055Z,13.70
2023-04-25T12:35:09.956Z,15.79
2023-04-25T12:40:14.254Z,15.96
2023-04-25T12:45:18.211Z,17.24
2023-04-25T12:50:20.021Z,17.38
2023-04-25T12:55:21.903Z,17.12
2023-04-25T13:00:30.622Z,14.72
2023-04-25T13:05:32.499Z,12.54
2023-04-25T13:10:40.314Z,11.99
2023-04-25T13:15:42.234Z,14.75
2023-04-25T13:20:48.596Z,16.54
2023-04-25T13:25:52.618Z,17.44
2023-04-25T13:30:57.114Z,16.33
2023-04-25T13:36:01.744Z,17.74
2023-04-25T13:41:07.890Z,19.78
2023-04-25T13:46:16.596Z,19.26
2023-04-25T13:51:27.471Z,18.27
2023-04-25T13:56:34.121Z,17.53
2023-04-25T14:01:36.751Z,15.09
2023-04-25T14:06:40.920Z,17.77
2023-04-25T14:11:45.733Z,18.97
2023-04-25T14:16:55.061Z,18.26
2023-04-25T14:21:59.061Z,17.90
2023-04-25T14:27:03.515Z,19.44
2023-04-25T14:32:06.409Z,18.76
2023-04-25T14:37:10.502Z,23.40
2023-04-25T14:42:12.274Z,20.35
2023-04-25T14:47:16.712Z,20.33
2023-04-25T14:52:21.288Z,20.63
2023-04-25T14:57:22.947Z,17.55
2023-04-25T15:02:26.829Z,19.92
2023-04-25T15:07:31.544Z,21.14
2023-04-25T15:12:35.563Z,19.12
2023-04-25T15:17:40.311Z,22.23
2023-04-25T15:22:43.009Z,24.56
2023-04-25T15:27:49.457Z,23.01
2023-04-25T15:32:53.679Z,18.96
2023-04-25T15:37:55.852Z,20.52
2023-04-25T15:42:57.667Z,22.97
2023-04-25T15:47:59.552Z,24.99
2023-04-25T15:53:05.086Z,22.17
2023-04-25T15:58:11.351Z,21.72
2023-04-25T16:03:16.811Z,23.88
2023-04-25T16:08:21.391Z,24.94
2023-04-25T16:13:23.590Z,22.02
2023-04-25T16:18:25.399Z,24.72
2023-04-25T16:23:27.260Z,24.31
2023-04-25T16:28:28.950Z,21.66
2023-04-25T16:33:30.699Z,22.32
2023-04-25T16:38:33.007Z,18.44
2023-04-25T16:43:40.112Z,16.15
2023-04-25T16:48:44.119Z,14.10
2023-04-25T16:53:46.794Z,12.80
2023-04-25T16:58:49.506Z,12.11
2023-04-25T17:03:51.865Z,11.23
2023-04-25T17:08:55.759Z,10.91
2023-04-25T17:13:59.705Z,10.67
2023-04-25T17:19:01.511Z,10.35
2023-04-25T17:24:06.160Z,10.50
2023-04-25T17:29:08.226Z,10.69
2023-04-25T17:34:10.115Z,10.50
2023-04-25T17:39:17.388Z,10.16
2023-04-25T17:44:21.011Z,9.96
2023-04-25T17:49:22.870Z,9.67
2023-04-25T17:54:29.731Z,9.31
2023-04-25T17:59:31.549Z,9.08
2023-04-25T18:04:33.316Z,9.06
2023-04-25T18:09:35.502Z,8.91
2023-04-25T18:14:37.297Z,8.62
2023-04-25T18:19:41.246Z,8.41
2023-04-25T18:24:46.384Z,8.15
2023-04-25T18:29:48.154Z,7.89
2023-04-25T18:34:50.673Z,7.72
2023-04-25T18:39:52.420Z,7.51
2023-04-25T18:44:54.259Z,7.37
2023-04-25T18:49:56.226Z,7.31
2023-04-25T18:55:00.441Z,7.36
2023-04-25T19:00:06.548Z,7.38
2023-04-25T19:05:08.750Z,7.20
2023-04-25T19:10:11.034Z,7.31
2023-04-25T19:15:12.755Z,7.30
2023-04-25T19:20:17.074Z,7.04
2023-04-25T19:25:18.798Z,7.09
2023-04-25T19:30:20.689Z,7.21
2023-04-25T19:35:22.471Z,7.10
2023-04-25T19:40:26.985Z,6.62
2023-04-25T19:45:32.642Z,6.26
2023-04-25T19:50:37.235Z,6.06
2023-04-25T19:55:42.394Z,5.93
2023-04-25T20:00:44.115Z,5.78
2023-04-25T20:05:50.791Z,5.75
2023-04-25T20:10:52.491Z,5.93
2023-04-25T20:15:54.239Z,5.69
2023-04-25T20:20:58.805Z,5.50
2023-04-25T20:26:00.505Z,5.34
2023-04-25T20:31:02.472Z,5.21
2023-04-25T20:36:12.238Z,5.16
2023-04-25T20:41:14.013Z,5.16
2023-04-25T20:46:18.246Z,5.01
2023-04-25T20:51:20.649Z,4.92
2023-04-25T20:56:25.305Z,4.95
2023-04-25T21:01:31.958Z,5.23
2023-04-25T21:06:36.504Z,5.12
2023-04-25T21:11:41.054Z,5.30
2023-04-25T21:16:46.157Z,5.11
2023-04-25T21:21:50.272Z,4.82
2023-04-25T21:26:51.911Z,4.81
2023-04-25T21:31:56.599Z,4.99
2023-04-25T21:36:58.390Z,4.99
2023-04-25T21:42:03.074Z,4.89
2023-04-25T21:47:07.094Z,4.63
2023-04-25T21:52:11.162Z,4.45
2023-04-25T21:57:15.476Z,4.31
2023-04-25T22:02:17.396Z,4.24
2023-04-25T22:07:21.680Z,4.16
2023-04-25T22:12:25.924Z,4.21
2023-04-25T22:17:31.235Z,4.37
2023-04-25T22:22:36.009Z,4.31
2023-04-25T22:27:43.817Z,4.49
2023-04-25T22:32:47.839Z,4.53
2023-04-25T22:37:49.678Z,4.33
2023-04-25T22:42:51.733Z,4.20
2023-04-25T22:47:58.537Z,4.05
2023-04-25T22:53:00.606Z,3.93
2023-04-25T22:58:08.602Z,3.84
2023-04-25T23:03:12.692Z,3.86
2023-04-25T23:08:18.648Z,3.87
2023-04-25T23:13:23.628Z,3.99
2023-04-25T23:18:25.293Z,4.12
2023-04-25T23:23:32.821Z,4.23
2023-04-25T23:28:41.472Z,4.28
2023-04-25T23:33:43.694Z,4.17
2023-04-25T23:38:47.858Z,4.07
2023-04-25T23:43:49.626Z,4.23
2023-04-25T23:48:56.613Z,4.37
2023-04-25T23:53:58.727Z,4.45
2023-04-25T23:59:00.442Z,4.52
